Groesbeek, Netherlands
Current Conditions -  °F | °C
As of 6:25 PM on Thursday 30 Oct 2014 (Local Time) from EHVK Reporting Station
Haze Haze  
Wind Chill: 59°   Ceiling: 12000
Heat Index: 59°   Visibility: 3mi
Dew Point: 55°   Wind: 3mph
Humidity: 88%   Direction: 170°S
Pressure: 30.18"   Gusts: NA
Location:  51.78°N, 5.94°E
Report Text: EHVK 301725Z AUTO 17003KT 5000 BR OVC120 15/13 Q1022 WHT
Loading
Personal Weather Stations






























Interactive Weather Map
Tropical Storm Tracking
New forecast layout! Learn more

10-Day Weather Forecast

Advertisements
Track Severe Weather on mobile